< < Back
Terminal Aerodrome Forecast


Current Version              Previous Versions:   1  2  3  4  5  6  7  8  9  

Terminal Aerodrome Forecast

543
FTUS42 KFFC 301500 AAA
TAFFTY
TAF AMD
KFTY 301552Z 3016/3112 03004KT P6SM FEW030
     FM301800 03005KT P6SM SCT030 SCT250
     FM310300 03005KT P6SM FEW250
     FM310900 00000KT P6SM BKN150=



Latest METAR

326
SAUS70 KWBC 311300 RRG
MTRFTY
METAR KFTY 311253Z 00000KT 10SM CLR 21/18 A3006 RMK AO2 SLP172
T02110178


USA.gov is the U.S. government's official web portal to all federal, state and local government web resources and services.